sensor_id;sensor_type;location;lat;lon;timestamp;P1;durP1;ratioP1;P2;durP2;ratioP2
33190;SDS011;19554;42.652;23.364;2024-02-26T00:02:05;11.68;;;8.38;;
33190;SDS011;19554;42.652;23.364;2024-02-26T00:04:32;14.10;;;8.35;;
33190;SDS011;19554;42.652;23.364;2024-02-26T00:06:57;20.70;;;13.00;;
33190;SDS011;19554;42.652;23.364;2024-02-26T00:09:23;20.75;;;11.23;;
33190;SDS011;19554;42.652;23.364;2024-02-26T00:11:48;19.23;;;10.30;;
33190;SDS011;19554;42.652;23.364;2024-02-26T00:14:14;15.55;;;10.50;;
33190;SDS011;19554;42.652;23.364;2024-02-26T00:16:40;18.85;;;10.02;;
33190;SDS011;19554;42.652;23.364;2024-02-26T00:19:06;17.50;;;10.32;;
33190;SDS011;19554;42.652;23.364;2024-02-26T00:21:32;13.93;;;9.07;;
33190;SDS011;19554;42.652;23.364;2024-02-26T00:23:57;19.02;;;10.02;;
33190;SDS011;19554;42.652;23.364;2024-02-26T00:26:23;13.20;;;8.48;;
33190;SDS011;19554;42.652;23.364;2024-02-26T00:28:48;15.15;;;9.68;;
33190;SDS011;19554;42.652;23.364;2024-02-26T00:31:14;11.95;;;8.90;;
33190;SDS011;19554;42.652;23.364;2024-02-26T00:33:39;17.48;;;10.13;;
33190;SDS011;19554;42.652;23.364;2024-02-26T00:36:05;22.00;;;10.90;;
33190;SDS011;19554;42.652;23.364;2024-02-26T00:38:31;18.95;;;10.82;;
33190;SDS011;19554;42.652;23.364;2024-02-26T00:40:56;17.83;;;11.32;;
33190;SDS011;19554;42.652;23.364;2024-02-26T00:43:22;20.70;;;11.48;;
33190;SDS011;19554;42.652;23.364;2024-02-26T00:45:48;19.00;;;12.13;;
33190;SDS011;19554;42.652;23.364;2024-02-26T00:48:13;23.98;;;13.40;;
33190;SDS011;19554;42.652;23.364;2024-02-26T00:50:39;23.80;;;14.77;;
33190;SDS011;19554;42.652;23.364;2024-02-26T00:53:05;23.25;;;12.77;;
33190;SDS011;19554;42.652;23.364;2024-02-26T00:55:30;20.10;;;11.23;;
33190;SDS011;19554;42.652;23.364;2024-02-26T00:57:56;18.25;;;11.20;;
33190;SDS011;19554;42.652;23.364;2024-02-26T01:00:21;19.05;;;11.70;;
33190;SDS011;19554;42.652;23.364;2024-02-26T01:02:47;18.45;;;10.35;;
33190;SDS011;19554;42.652;23.364;2024-02-26T01:05:13;21.58;;;11.13;;
33190;SDS011;19554;42.652;23.364;2024-02-26T01:07:39;20.00;;;11.95;;
33190;SDS011;19554;42.652;23.364;2024-02-26T01:10:05;21.80;;;12.50;;
33190;SDS011;19554;42.652;23.364;2024-02-26T01:12:32;27.30;;;15.45;;
33190;SDS011;19554;42.652;23.364;2024-02-26T01:14:58;23.33;;;14.80;;
33190;SDS011;19554;42.652;23.364;2024-02-26T01:17:24;29.73;;;16.20;;
33190;SDS011;19554;42.652;23.364;2024-02-26T01:19:50;26.90;;;16.25;;
33190;SDS011;19554;42.652;23.364;2024-02-26T01:22:15;28.67;;;15.73;;
33190;SDS011;19554;42.652;23.364;2024-02-26T01:24:41;26.30;;;14.43;;
33190;SDS011;19554;42.652;23.364;2024-02-26T01:27:06;24.15;;;13.90;;
33190;SDS011;19554;42.652;23.364;2024-02-26T01:29:34;26.95;;;14.63;;
33190;SDS011;19554;42.652;23.364;2024-02-26T01:31:59;27.80;;;15.20;;
33190;SDS011;19554;42.652;23.364;2024-02-26T01:34:25;27.60;;;13.88;;
33190;SDS011;19554;42.652;23.364;2024-02-26T01:36:50;25.10;;;14.82;;
33190;SDS011;19554;42.652;23.364;2024-02-26T01:39:15;23.83;;;15.05;;
33190;SDS011;19554;42.652;23.364;2024-02-26T01:41:41;23.35;;;14.18;;
33190;SDS011;19554;42.652;23.364;2024-02-26T01:44:07;23.02;;;14.13;;
33190;SDS011;19554;42.652;23.364;2024-02-26T01:46:33;24.27;;;14.55;;
33190;SDS011;19554;42.652;23.364;2024-02-26T01:48:59;27.42;;;14.32;;
33190;SDS011;19554;42.652;23.364;2024-02-26T01:51:28;21.63;;;14.65;;
33190;SDS011;19554;42.652;23.364;2024-02-26T01:53:54;31.27;;;16.48;;
33190;SDS011;19554;42.652;23.364;2024-02-26T01:56:20;27.38;;;14.85;;
33190;SDS011;19554;42.652;23.364;2024-02-26T01:58:47;26.65;;;15.57;;
33190;SDS011;19554;42.652;23.364;2024-02-26T02:01:14;24.63;;;15.45;;
33190;SDS011;19554;42.652;23.364;2024-02-26T02:03:41;25.85;;;14.73;;
33190;SDS011;19554;42.652;23.364;2024-02-26T02:06:07;28.13;;;15.18;;
33190;SDS011;19554;42.652;23.364;2024-02-26T02:08:33;28.48;;;15.63;;
33190;SDS011;19554;42.652;23.364;2024-02-26T02:11:00;22.33;;;14.40;;
33190;SDS011;19554;42.652;23.364;2024-02-26T02:13:25;25.63;;;14.95;;
33190;SDS011;19554;42.652;23.364;2024-02-26T02:15:51;22.75;;;14.77;;
33190;SDS011;19554;42.652;23.364;2024-02-26T02:18:17;31.02;;;16.63;;
33190;SDS011;19554;42.652;23.364;2024-02-26T02:20:44;37.72;;;21.50;;
33190;SDS011;19554;42.652;23.364;2024-02-26T02:23:09;31.30;;;16.55;;
33190;SDS011;19554;42.652;23.364;2024-02-26T02:25:34;31.30;;;16.13;;
33190;SDS011;19554;42.652;23.364;2024-02-26T02:28:00;26.90;;;15.25;;
33190;SDS011;19554;42.652;23.364;2024-02-26T02:30:27;26.40;;;15.27;;
33190;SDS011;19554;42.652;23.364;2024-02-26T02:32:54;31.13;;;16.40;;
33190;SDS011;19554;42.652;23.364;2024-02-26T02:35:22;24.17;;;15.38;;
33190;SDS011;19554;42.652;23.364;2024-02-26T02:37:48;28.23;;;16.92;;
33190;SDS011;19554;42.652;23.364;2024-02-26T02:40:13;30.23;;;15.63;;
33190;SDS011;19554;42.652;23.364;2024-02-26T02:42:39;28.23;;;17.50;;
33190;SDS011;19554;42.652;23.364;2024-02-26T02:45:05;27.92;;;16.80;;
33190;SDS011;19554;42.652;23.364;2024-02-26T02:47:30;27.40;;;16.48;;
33190;SDS011;19554;42.652;23.364;2024-02-26T02:49:56;27.13;;;15.30;;
33190;SDS011;19554;42.652;23.364;2024-02-26T02:52:22;23.70;;;15.82;;
33190;SDS011;19554;42.652;23.364;2024-02-26T02:54:47;28.60;;;18.05;;
33190;SDS011;19554;42.652;23.364;2024-02-26T02:57:12;29.58;;;17.75;;
33190;SDS011;19554;42.652;23.364;2024-02-26T02:59:39;28.25;;;17.48;;
33190;SDS011;19554;42.652;23.364;2024-02-26T03:02:04;27.48;;;16.52;;
33190;SDS011;19554;42.652;23.364;2024-02-26T03:04:30;26.65;;;16.20;;
33190;SDS011;19554;42.652;23.364;2024-02-26T03:06:55;27.63;;;15.90;;
33190;SDS011;19554;42.652;23.364;2024-02-26T03:09:21;29.52;;;14.77;;
33190;SDS011;19554;42.652;23.364;2024-02-26T03:11:46;23.33;;;14.70;;
33190;SDS011;19554;42.652;23.364;2024-02-26T03:14:12;21.63;;;13.57;;
33190;SDS011;19554;42.652;23.364;2024-02-26T03:16:37;21.48;;;14.57;;
33190;SDS011;19554;42.652;23.364;2024-02-26T03:19:03;28.33;;;15.95;;
33190;SDS011;19554;42.652;23.364;2024-02-26T03:21:28;30.23;;;15.40;;
33190;SDS011;19554;42.652;23.364;2024-02-26T03:23:54;22.35;;;15.68;;
33190;SDS011;19554;42.652;23.364;2024-02-26T03:26:20;29.30;;;16.05;;
33190;SDS011;19554;42.652;23.364;2024-02-26T03:28:46;22.50;;;14.77;;
33190;SDS011;19554;42.652;23.364;2024-02-26T03:31:12;25.58;;;15.80;;
33190;SDS011;19554;42.652;23.364;2024-02-26T03:33:37;28.02;;;16.30;;
33190;SDS011;19554;42.652;23.364;2024-02-26T03:36:03;22.50;;;14.63;;
33190;SDS011;19554;42.652;23.364;2024-02-26T03:38:29;27.27;;;16.77;;
33190;SDS011;19554;42.652;23.364;2024-02-26T03:40:55;30.10;;;16.75;;
33190;SDS011;19554;42.652;23.364;2024-02-26T03:43:21;26.92;;;17.00;;
33190;SDS011;19554;42.652;23.364;2024-02-26T03:45:46;30.05;;;16.40;;
33190;SDS011;19554;42.652;23.364;2024-02-26T03:48:12;27.60;;;16.35;;
33190;SDS011;19554;42.652;23.364;2024-02-26T03:53:21;26.08;;;15.75;;
33190;SDS011;19554;42.652;23.364;2024-02-26T03:55:47;25.05;;;16.23;;
33190;SDS011;19554;42.652;23.364;2024-02-26T03:58:12;25.80;;;16.80;;
33190;SDS011;19554;42.652;23.364;2024-02-26T04:00:38;32.88;;;19.17;;
33190;SDS011;19554;42.652;23.364;2024-02-26T04:03:03;31.30;;;19.38;;
33190;SDS011;19554;42.652;23.364;2024-02-26T04:05:29;32.25;;;20.15;;
33190;SDS011;19554;42.652;23.364;2024-02-26T04:07:54;33.45;;;20.20;;
33190;SDS011;19554;42.652;23.364;2024-02-26T04:10:20;31.75;;;18.40;;
33190;SDS011;19554;42.652;23.364;2024-02-26T04:12:45;31.65;;;18.63;;
33190;SDS011;19554;42.652;23.364;2024-02-26T04:15:11;28.02;;;17.50;;
33190;SDS011;19554;42.652;23.364;2024-02-26T04:17:37;34.42;;;19.65;;
33190;SDS011;19554;42.652;23.364;2024-02-26T04:20:03;38.13;;;23.65;;
33190;SDS011;19554;42.652;23.364;2024-02-26T04:22:30;36.45;;;21.02;;
33190;SDS011;19554;42.652;23.364;2024-02-26T04:24:57;28.40;;;18.77;;
33190;SDS011;19554;42.652;23.364;2024-02-26T04:27:22;25.25;;;16.60;;
33190;SDS011;19554;42.652;23.364;2024-02-26T04:29:48;28.52;;;17.48;;
33190;SDS011;19554;42.652;23.364;2024-02-26T04:32:13;32.97;;;19.83;;
33190;SDS011;19554;42.652;23.364;2024-02-26T04:34:38;28.10;;;19.80;;
33190;SDS011;19554;42.652;23.364;2024-02-26T04:37:04;37.45;;;21.90;;
33190;SDS011;19554;42.652;23.364;2024-02-26T04:39:29;28.65;;;20.98;;
33190;SDS011;19554;42.652;23.364;2024-02-26T04:41:55;32.15;;;18.88;;
33190;SDS011;19554;42.652;23.364;2024-02-26T04:44:20;24.33;;;16.45;;
33190;SDS011;19554;42.652;23.364;2024-02-26T04:46:46;20.77;;;12.30;;
33190;SDS011;19554;42.652;23.364;2024-02-26T04:49:11;21.50;;;13.10;;
33190;SDS011;19554;42.652;23.364;2024-02-26T04:51:37;21.40;;;12.98;;
33190;SDS011;19554;42.652;23.364;2024-02-26T04:54:02;19.60;;;12.35;;
33190;SDS011;19554;42.652;23.364;2024-02-26T04:56:28;20.33;;;12.65;;
33190;SDS011;19554;42.652;23.364;2024-02-26T04:58:53;16.08;;;11.90;;
33190;SDS011;19554;42.652;23.364;2024-02-26T05:01:19;17.55;;;11.93;;
33190;SDS011;19554;42.652;23.364;2024-02-26T05:03:44;24.25;;;13.27;;
33190;SDS011;19554;42.652;23.364;2024-02-26T05:06:10;22.05;;;12.63;;
33190;SDS011;19554;42.652;23.364;2024-02-26T05:08:35;21.90;;;13.23;;
33190;SDS011;19554;42.652;23.364;2024-02-26T05:11:02;22.30;;;14.13;;
33190;SDS011;19554;42.652;23.364;2024-02-26T05:13:28;23.75;;;13.18;;
33190;SDS011;19554;42.652;23.364;2024-02-26T05:15:54;23.48;;;14.15;;
33190;SDS011;19554;42.652;23.364;2024-02-26T05:18:19;22.67;;;14.15;;
33190;SDS011;19554;42.652;23.364;2024-02-26T05:20:45;20.13;;;14.15;;
33190;SDS011;19554;42.652;23.364;2024-02-26T05:23:10;21.58;;;14.30;;
33190;SDS011;19554;42.652;23.364;2024-02-26T05:25:36;21.98;;;14.75;;
33190;SDS011;19554;42.652;23.364;2024-02-26T05:28:02;23.85;;;15.45;;
33190;SDS011;19554;42.652;23.364;2024-02-26T05:30:27;28.63;;;17.15;;
33190;SDS011;19554;42.652;23.364;2024-02-26T05:32:53;23.02;;;14.93;;
33190;SDS011;19554;42.652;23.364;2024-02-26T05:35:19;28.15;;;15.98;;
33190;SDS011;19554;42.652;23.364;2024-02-26T05:37:44;23.15;;;16.10;;
33190;SDS011;19554;42.652;23.364;2024-02-26T05:40:10;29.42;;;16.55;;
33190;SDS011;19554;42.652;23.364;2024-02-26T05:42:36;22.63;;;15.50;;
33190;SDS011;19554;42.652;23.364;2024-02-26T05:45:01;25.05;;;15.48;;
33190;SDS011;19554;42.652;23.364;2024-02-26T05:47:34;23.90;;;16.15;;
33190;SDS011;19554;42.652;23.364;2024-02-26T05:50:00;31.05;;;18.13;;
33190;SDS011;19554;42.652;23.364;2024-02-26T05:52:26;35.67;;;19.63;;
33190;SDS011;19554;42.652;23.364;2024-02-26T05:54:53;31.73;;;18.13;;
33190;SDS011;19554;42.652;23.364;2024-02-26T05:57:19;26.77;;;17.90;;
33190;SDS011;19554;42.652;23.364;2024-02-26T05:59:44;33.00;;;18.38;;
33190;SDS011;19554;42.652;23.364;2024-02-26T06:02:10;33.65;;;18.92;;
33190;SDS011;19554;42.652;23.364;2024-02-26T06:04:36;29.27;;;18.17;;
33190;SDS011;19554;42.652;23.364;2024-02-26T06:07:01;25.80;;;16.63;;
33190;SDS011;19554;42.652;23.364;2024-02-26T06:09:26;29.05;;;16.90;;
33190;SDS011;19554;42.652;23.364;2024-02-26T06:11:52;28.00;;;17.73;;
33190;SDS011;19554;42.652;23.364;2024-02-26T06:14:18;27.42;;;16.70;;
33190;SDS011;19554;42.652;23.364;2024-02-26T06:16:44;22.00;;;15.05;;
33190;SDS011;19554;42.652;23.364;2024-02-26T06:19:10;25.85;;;15.65;;
33190;SDS011;19554;42.652;23.364;2024-02-26T06:21:36;26.27;;;15.15;;
33190;SDS011;19554;42.652;23.364;2024-02-26T06:24:01;22.25;;;15.07;;
33190;SDS011;19554;42.652;23.364;2024-02-26T06:26:27;27.25;;;16.52;;
33190;SDS011;19554;42.652;23.364;2024-02-26T06:28:54;28.25;;;15.85;;
33190;SDS011;19554;42.652;23.364;2024-02-26T06:31:21;23.80;;;15.27;;
33190;SDS011;19554;42.652;23.364;2024-02-26T06:33:47;28.42;;;18.15;;
33190;SDS011;19554;42.652;23.364;2024-02-26T06:36:13;33.08;;;20.30;;
33190;SDS011;19554;42.652;23.364;2024-02-26T06:38:39;39.42;;;19.88;;
33190;SDS011;19554;42.652;23.364;2024-02-26T06:41:04;28.95;;;18.75;;
33190;SDS011;19554;42.652;23.364;2024-02-26T06:43:30;35.55;;;19.30;;
33190;SDS011;19554;42.652;23.364;2024-02-26T06:45:55;35.20;;;21.50;;
33190;SDS011;19554;42.652;23.364;2024-02-26T06:48:22;28.10;;;17.98;;
33190;SDS011;19554;42.652;23.364;2024-02-26T06:50:48;30.42;;;17.33;;
33190;SDS011;19554;42.652;23.364;2024-02-26T06:53:14;20.83;;;14.82;;
33190;SDS011;19554;42.652;23.364;2024-02-26T06:55:39;27.65;;;14.07;;
33190;SDS011;19554;42.652;23.364;2024-02-26T06:58:05;30.13;;;16.13;;
33190;SDS011;19554;42.652;23.364;2024-02-26T07:00:31;22.50;;;15.00;;
33190;SDS011;19554;42.652;23.364;2024-02-26T07:02:56;21.45;;;14.20;;
33190;SDS011;19554;42.652;23.364;2024-02-26T07:05:23;22.83;;;13.40;;
33190;SDS011;19554;42.652;23.364;2024-02-26T07:07:48;20.60;;;13.23;;
33190;SDS011;19554;42.652;23.364;2024-02-26T07:10:14;18.92;;;13.40;;
33190;SDS011;19554;42.652;23.364;2024-02-26T07:12:39;21.35;;;13.45;;
33190;SDS011;19554;42.652;23.364;2024-02-26T07:15:05;19.65;;;12.45;;
33190;SDS011;19554;42.652;23.364;2024-02-26T07:17:33;19.75;;;13.23;;
33190;SDS011;19554;42.652;23.364;2024-02-26T07:19:59;22.95;;;13.25;;
33190;SDS011;19554;42.652;23.364;2024-02-26T07:22:25;19.73;;;11.88;;
33190;SDS011;19554;42.652;23.364;2024-02-26T07:24:50;20.17;;;12.27;;
33190;SDS011;19554;42.652;23.364;2024-02-26T07:27:16;22.40;;;12.60;;
33190;SDS011;19554;42.652;23.364;2024-02-26T07:29:43;17.55;;;11.80;;
33190;SDS011;19554;42.652;23.364;2024-02-26T07:32:08;26.33;;;13.07;;
33190;SDS011;19554;42.652;23.364;2024-02-26T07:34:35;17.70;;;11.77;;
33190;SDS011;19554;42.652;23.364;2024-02-26T07:37:02;21.55;;;13.60;;
33190;SDS011;19554;42.652;23.364;2024-02-26T07:39:28;19.35;;;12.27;;
33190;SDS011;19554;42.652;23.364;2024-02-26T07:41:53;27.90;;;12.52;;
33190;SDS011;19554;42.652;23.364;2024-02-26T07:44:19;24.35;;;12.35;;
33190;SDS011;19554;42.652;23.364;2024-02-26T07:46:44;31.48;;;12.98;;
33190;SDS011;19554;42.652;23.364;2024-02-26T07:49:10;23.83;;;13.10;;
33190;SDS011;19554;42.652;23.364;2024-02-26T07:51:35;23.35;;;12.25;;
33190;SDS011;19554;42.652;23.364;2024-02-26T07:54:01;23.35;;;12.52;;
33190;SDS011;19554;42.652;23.364;2024-02-26T07:56:27;19.88;;;12.20;;
33190;SDS011;19554;42.652;23.364;2024-02-26T07:58:53;23.27;;;12.10;;
33190;SDS011;19554;42.652;23.364;2024-02-26T08:01:18;19.35;;;10.48;;
33190;SDS011;19554;42.652;23.364;2024-02-26T08:03:44;17.20;;;9.60;;
33190;SDS011;19554;42.652;23.364;2024-02-26T08:06:09;20.50;;;10.02;;
33190;SDS011;19554;42.652;23.364;2024-02-26T08:08:35;21.00;;;10.05;;
33190;SDS011;19554;42.652;23.364;2024-02-26T08:11:00;17.70;;;8.45;;
33190;SDS011;19554;42.652;23.364;2024-02-26T08:13:26;14.50;;;9.05;;
33190;SDS011;19554;42.652;23.364;2024-02-26T08:15:51;16.75;;;8.63;;
33190;SDS011;19554;42.652;23.364;2024-02-26T08:18:17;15.45;;;9.00;;
33190;SDS011;19554;42.652;23.364;2024-02-26T08:20:44;15.98;;;8.85;;
33190;SDS011;19554;42.652;23.364;2024-02-26T08:23:09;16.98;;;8.73;;
33190;SDS011;19554;42.652;23.364;2024-02-26T08:25:35;13.80;;;8.20;;
33190;SDS011;19554;42.652;23.364;2024-02-26T08:28:00;13.40;;;8.35;;
33190;SDS011;19554;42.652;23.364;2024-02-26T08:30:26;15.98;;;8.93;;
33190;SDS011;19554;42.652;23.364;2024-02-26T08:32:51;17.55;;;8.13;;
33190;SDS011;19554;42.652;23.364;2024-02-26T08:35:17;17.13;;;8.10;;
33190;SDS011;19554;42.652;23.364;2024-02-26T08:37:46;14.77;;;8.63;;
33190;SDS011;19554;42.652;23.364;2024-02-26T08:40:13;18.88;;;8.68;;
33190;SDS011;19554;42.652;23.364;2024-02-26T08:42:38;18.05;;;8.15;;
33190;SDS011;19554;42.652;23.364;2024-02-26T08:45:04;15.75;;;7.68;;
33190;SDS011;19554;42.652;23.364;2024-02-26T08:47:30;14.38;;;7.43;;
33190;SDS011;19554;42.652;23.364;2024-02-26T08:49:56;13.10;;;8.02;;
33190;SDS011;19554;42.652;23.364;2024-02-26T08:52:21;13.30;;;7.50;;
33190;SDS011;19554;42.652;23.364;2024-02-26T08:54:48;14.88;;;8.40;;
33190;SDS011;19554;42.652;23.364;2024-02-26T08:57:14;13.57;;;8.68;;
33190;SDS011;19554;42.652;23.364;2024-02-26T08:59:40;12.90;;;7.95;;
33190;SDS011;19554;42.652;23.364;2024-02-26T09:02:05;20.88;;;9.90;;
33190;SDS011;19554;42.652;23.364;2024-02-26T09:04:30;11.88;;;8.43;;
33190;SDS011;19554;42.652;23.364;2024-02-26T09:06:56;12.80;;;8.00;;
33190;SDS011;19554;42.652;23.364;2024-02-26T09:09:21;14.00;;;9.13;;
33190;SDS011;19554;42.652;23.364;2024-02-26T09:11:47;18.52;;;9.52;;
33190;SDS011;19554;42.652;23.364;2024-02-26T09:14:13;21.05;;;10.52;;
33190;SDS011;19554;42.652;23.364;2024-02-26T09:16:39;18.70;;;10.27;;
33190;SDS011;19554;42.652;23.364;2024-02-26T09:19:04;15.07;;;8.52;;
33190;SDS011;19554;42.652;23.364;2024-02-26T09:21:30;13.18;;;7.28;;
33190;SDS011;19554;42.652;23.364;2024-02-26T09:23:55;10.63;;;7.63;;
33190;SDS011;19554;42.652;23.364;2024-02-26T09:26:21;9.85;;;6.97;;
33190;SDS011;19554;42.652;23.364;2024-02-26T09:28:46;7.60;;;5.13;;
33190;SDS011;19554;42.652;23.364;2024-02-26T09:31:12;9.90;;;6.63;;
33190;SDS011;19554;42.652;23.364;2024-02-26T09:33:37;13.95;;;8.20;;
33190;SDS011;19554;42.652;23.364;2024-02-26T09:36:03;15.15;;;7.13;;
33190;SDS011;19554;42.652;23.364;2024-02-26T09:38:29;18.65;;;8.68;;
33190;SDS011;19554;42.652;23.364;2024-02-26T09:40:58;11.73;;;6.88;;
33190;SDS011;19554;42.652;23.364;2024-02-26T09:43:24;13.85;;;7.25;;
33190;SDS011;19554;42.652;23.364;2024-02-26T09:45:57;12.60;;;7.40;;
33190;SDS011;19554;42.652;23.364;2024-02-26T09:48:22;9.82;;;6.75;;
33190;SDS011;19554;42.652;23.364;2024-02-26T09:50:48;11.63;;;6.50;;
33190;SDS011;19554;42.652;23.364;2024-02-26T09:53:14;10.10;;;7.57;;
33190;SDS011;19554;42.652;23.364;2024-02-26T09:55:40;11.55;;;7.32;;
33190;SDS011;19554;42.652;23.364;2024-02-26T09:58:06;11.18;;;6.38;;
33190;SDS011;19554;42.652;23.364;2024-02-26T10:00:32;11.02;;;6.68;;
33190;SDS011;19554;42.652;23.364;2024-02-26T10:03:03;12.00;;;7.20;;
33190;SDS011;19554;42.652;23.364;2024-02-26T10:05:29;12.20;;;7.07;;
33190;SDS011;19554;42.652;23.364;2024-02-26T10:07:57;9.82;;;7.28;;
33190;SDS011;19554;42.652;23.364;2024-02-26T10:10:25;16.48;;;7.95;;
33190;SDS011;19554;42.652;23.364;2024-02-26T10:12:52;15.07;;;7.43;;
33190;SDS011;19554;42.652;23.364;2024-02-26T10:15:18;12.63;;;7.18;;
33190;SDS011;19554;42.652;23.364;2024-02-26T10:17:44;10.82;;;7.10;;
33190;SDS011;19554;42.652;23.364;2024-02-26T10:20:14;13.57;;;7.63;;
33190;SDS011;19554;42.652;23.364;2024-02-26T10:22:41;10.43;;;6.82;;
33190;SDS011;19554;42.652;23.364;2024-02-26T10:25:07;11.32;;;6.95;;
33190;SDS011;19554;42.652;23.364;2024-02-26T10:27:33;12.02;;;7.88;;
33190;SDS011;19554;42.652;23.364;2024-02-26T10:30:02;14.43;;;8.20;;
33190;SDS011;19554;42.652;23.364;2024-02-26T10:32:47;14.95;;;6.80;;
33190;SDS011;19554;42.652;23.364;2024-02-26T10:35:14;13.02;;;6.90;;
33190;SDS011;19554;42.652;23.364;2024-02-26T10:37:41;11.18;;;7.25;;
33190;SDS011;19554;42.652;23.364;2024-02-26T10:40:10;10.07;;;6.55;;
33190;SDS011;19554;42.652;23.364;2024-02-26T10:42:36;12.32;;;6.90;;
33190;SDS011;19554;42.652;23.364;2024-02-26T10:45:04;15.20;;;6.55;;
33190;SDS011;19554;42.652;23.364;2024-02-26T10:47:31;11.93;;;6.68;;
33190;SDS011;19554;42.652;23.364;2024-02-26T10:49:58;11.57;;;6.25;;
33190;SDS011;19554;42.652;23.364;2024-02-26T10:52:24;12.43;;;6.13;;
33190;SDS011;19554;42.652;23.364;2024-02-26T10:54:53;9.48;;;6.78;;
33190;SDS011;19554;42.652;23.364;2024-02-26T10:59:48;8.30;;;6.35;;
33190;SDS011;19554;42.652;23.364;2024-02-26T11:02:14;14.13;;;6.07;;
33190;SDS011;19554;42.652;23.364;2024-02-26T11:04:40;12.27;;;7.38;;
33190;SDS011;19554;42.652;23.364;2024-02-26T11:07:07;12.80;;;7.45;;
33190;SDS011;19554;42.652;23.364;2024-02-26T11:09:34;12.38;;;7.00;;
33190;SDS011;19554;42.652;23.364;2024-02-26T11:12:01;12.27;;;7.10;;
33190;SDS011;19554;42.652;23.364;2024-02-26T11:14:27;10.65;;;7.28;;
33190;SDS011;19554;42.652;23.364;2024-02-26T11:16:56;11.55;;;6.07;;
33190;SDS011;19554;42.652;23.364;2024-02-26T11:19:23;12.77;;;6.50;;
33190;SDS011;19554;42.652;23.364;2024-02-26T11:21:49;12.93;;;6.93;;
33190;SDS011;19554;42.652;23.364;2024-02-26T11:24:15;14.63;;;6.95;;
33190;SDS011;19554;42.652;23.364;2024-02-26T11:27:04;10.02;;;6.65;;
33190;SDS011;19554;42.652;23.364;2024-02-26T11:29:43;9.18;;;6.60;;
33190;SDS011;19554;42.652;23.364;2024-02-26T11:32:13;12.68;;;6.82;;
33190;SDS011;19554;42.652;23.364;2024-02-26T11:34:39;11.55;;;6.70;;
33190;SDS011;19554;42.652;23.364;2024-02-26T11:37:08;9.82;;;6.97;;
33190;SDS011;19554;42.652;23.364;2024-02-26T11:39:39;10.23;;;6.70;;
33190;SDS011;19554;42.652;23.364;2024-02-26T11:42:10;9.88;;;6.15;;
33190;SDS011;19554;42.652;23.364;2024-02-26T11:44:39;8.35;;;5.95;;
33190;SDS011;19554;42.652;23.364;2024-02-26T11:47:13;11.18;;;5.47;;
33190;SDS011;19554;42.652;23.364;2024-02-26T11:49:46;10.10;;;6.20;;
33190;SDS011;19554;42.652;23.364;2024-02-26T11:52:12;10.75;;;5.95;;
33190;SDS011;19554;42.652;23.364;2024-02-26T11:54:52;11.65;;;5.63;;
33190;SDS011;19554;42.652;23.364;2024-02-26T12:05:24;11.10;;;5.90;;
33190;SDS011;19554;42.652;23.364;2024-02-26T12:07:53;8.68;;;6.10;;
33190;SDS011;19554;42.652;23.364;2024-02-26T12:12:53;10.63;;;5.90;;
33190;SDS011;19554;42.652;23.364;2024-02-26T12:15:33;10.63;;;6.32;;
33190;SDS011;19554;42.652;23.364;2024-02-26T12:18:02;10.35;;;5.65;;
33190;SDS011;19554;42.652;23.364;2024-02-26T12:22:55;9.45;;;5.78;;
33190;SDS011;19554;42.652;23.364;2024-02-26T12:25:25;11.88;;;5.35;;
33190;SDS011;19554;42.652;23.364;2024-02-26T12:27:52;12.02;;;5.40;;
33190;SDS011;19554;42.652;23.364;2024-02-26T12:30:18;11.27;;;6.00;;
33190;SDS011;19554;42.652;23.364;2024-02-26T12:32:44;15.15;;;5.60;;
33190;SDS011;19554;42.652;23.364;2024-02-26T12:35:11;7.22;;;5.70;;
33190;SDS011;19554;42.652;23.364;2024-02-26T12:37:37;9.43;;;5.40;;
33190;SDS011;19554;42.652;23.364;2024-02-26T12:40:06;9.10;;;5.35;;
33190;SDS011;19554;42.652;23.364;2024-02-26T12:42:34;9.50;;;5.38;;
33190;SDS011;19554;42.652;23.364;2024-02-26T12:45:08;9.35;;;5.13;;
33190;SDS011;19554;42.652;23.364;2024-02-26T12:47:38;8.05;;;5.60;;
33190;SDS011;19554;42.652;23.364;2024-02-26T12:50:05;8.88;;;5.40;;
33190;SDS011;19554;42.652;23.364;2024-02-26T12:52:34;11.18;;;5.40;;
33190;SDS011;19554;42.652;23.364;2024-02-26T12:55:04;8.10;;;4.65;;
33190;SDS011;19554;42.652;23.364;2024-02-26T12:57:32;9.88;;;4.85;;
33190;SDS011;19554;42.652;23.364;2024-02-26T12:59:59;7.00;;;4.88;;
33190;SDS011;19554;42.652;23.364;2024-02-26T13:02:26;8.43;;;4.82;;
33190;SDS011;19554;42.652;23.364;2024-02-26T13:04:52;8.90;;;5.35;;
33190;SDS011;19554;42.652;23.364;2024-02-26T13:07:20;12.30;;;5.57;;
33190;SDS011;19554;42.652;23.364;2024-02-26T13:09:46;10.23;;;5.05;;
33190;SDS011;19554;42.652;23.364;2024-02-26T13:12:12;9.45;;;4.72;;
33190;SDS011;19554;42.652;23.364;2024-02-26T13:14:38;14.30;;;5.30;;
33190;SDS011;19554;42.652;23.364;2024-02-26T13:17:04;12.95;;;5.38;;
33190;SDS011;19554;42.652;23.364;2024-02-26T13:19:29;9.05;;;5.13;;
33190;SDS011;19554;42.652;23.364;2024-02-26T13:21:55;7.13;;;4.43;;
33190;SDS011;19554;42.652;23.364;2024-02-26T13:24:21;7.50;;;5.07;;
33190;SDS011;19554;42.652;23.364;2024-02-26T13:26:53;8.15;;;4.45;;
33190;SDS011;19554;42.652;23.364;2024-02-26T13:29:19;7.57;;;4.93;;
33190;SDS011;19554;42.652;23.364;2024-02-26T13:31:45;9.60;;;4.75;;
33190;SDS011;19554;42.652;23.364;2024-02-26T13:34:11;7.85;;;4.95;;
33190;SDS011;19554;42.652;23.364;2024-02-26T13:36:49;6.68;;;4.57;;
33190;SDS011;19554;42.652;23.364;2024-02-26T13:39:21;9.60;;;5.15;;
33190;SDS011;19554;42.652;23.364;2024-02-26T13:41:48;7.60;;;4.43;;
33190;SDS011;19554;42.652;23.364;2024-02-26T13:44:13;9.98;;;5.78;;
33190;SDS011;19554;42.652;23.364;2024-02-26T13:46:39;13.05;;;5.10;;
33190;SDS011;19554;42.652;23.364;2024-02-26T13:49:07;8.25;;;4.55;;
33190;SDS011;19554;42.652;23.364;2024-02-26T13:51:34;8.63;;;4.88;;
33190;SDS011;19554;42.652;23.364;2024-02-26T13:54:00;7.65;;;4.57;;
33190;SDS011;19554;42.652;23.364;2024-02-26T13:56:26;6.85;;;4.38;;
33190;SDS011;19554;42.652;23.364;2024-02-26T13:58:52;7.90;;;4.53;;
33190;SDS011;19554;42.652;23.364;2024-02-26T14:01:18;8.38;;;4.80;;
33190;SDS011;19554;42.652;23.364;2024-02-26T14:03:43;7.68;;;4.45;;
33190;SDS011;19554;42.652;23.364;2024-02-26T14:06:09;7.70;;;4.72;;
33190;SDS011;19554;42.652;23.364;2024-02-26T14:08:34;10.25;;;5.85;;
33190;SDS011;19554;42.652;23.364;2024-02-26T14:11:00;10.52;;;4.70;;
33190;SDS011;19554;42.652;23.364;2024-02-26T14:13:25;11.10;;;5.40;;
33190;SDS011;19554;42.652;23.364;2024-02-26T14:15:51;9.10;;;4.50;;
33190;SDS011;19554;42.652;23.364;2024-02-26T14:18:16;9.75;;;4.63;;
33190;SDS011;19554;42.652;23.364;2024-02-26T14:20:42;10.65;;;5.00;;
33190;SDS011;19554;42.652;23.364;2024-02-26T14:23:09;12.50;;;4.97;;
33190;SDS011;19554;42.652;23.364;2024-02-26T14:25:35;9.38;;;4.35;;
33190;SDS011;19554;42.652;23.364;2024-02-26T14:28:01;11.02;;;4.95;;
33190;SDS011;19554;42.652;23.364;2024-02-26T14:30:27;7.07;;;4.53;;